sensor_id;sensor_type;location;lat;lon;timestamp;P1;durP1;ratioP1;P2;durP2;ratioP2
40907;SDS011;51055;59.436;24.778;2023-06-26T00:00:32;8.15;;;3.90;;
40907;SDS011;51055;59.436;24.778;2023-06-26T00:03:00;7.97;;;3.50;;
40907;SDS011;51055;59.436;24.778;2023-06-26T00:05:29;6.35;;;3.50;;
40907;SDS011;51055;59.436;24.778;2023-06-26T00:07:57;6.22;;;3.45;;
40907;SDS011;51055;59.436;24.778;2023-06-26T00:10:27;6.95;;;3.55;;
40907;SDS011;51055;59.436;24.778;2023-06-26T00:12:55;6.63;;;3.50;;
40907;SDS011;51055;59.436;24.778;2023-06-26T00:15:22;6.22;;;3.35;;
40907;SDS011;51055;59.436;24.778;2023-06-26T00:17:51;6.50;;;3.83;;
40907;SDS011;51055;59.436;24.778;2023-06-26T00:20:19;7.15;;;3.90;;
40907;SDS011;51055;59.436;24.778;2023-06-26T00:22:47;6.78;;;3.90;;
40907;SDS011;51055;59.436;24.778;2023-06-26T00:25:17;7.10;;;4.00;;
40907;SDS011;51055;59.436;24.778;2023-06-26T00:27:45;5.78;;;3.45;;
40907;SDS011;51055;59.436;24.778;2023-06-26T00:30:13;6.10;;;3.67;;
40907;SDS011;51055;59.436;24.778;2023-06-26T00:32:41;6.35;;;3.70;;
40907;SDS011;51055;59.436;24.778;2023-06-26T00:35:09;6.90;;;4.10;;
40907;SDS011;51055;59.436;24.778;2023-06-26T00:37:36;7.43;;;3.85;;
40907;SDS011;51055;59.436;24.778;2023-06-26T00:40:04;8.02;;;4.22;;
40907;SDS011;51055;59.436;24.778;2023-06-26T00:42:32;5.75;;;3.83;;
40907;SDS011;51055;59.436;24.778;2023-06-26T00:45:00;7.65;;;4.40;;
40907;SDS011;51055;59.436;24.778;2023-06-26T00:47:28;7.63;;;4.78;;
40907;SDS011;51055;59.436;24.778;2023-06-26T00:49:55;7.28;;;4.10;;
40907;SDS011;51055;59.436;24.778;2023-06-26T00:52:23;7.25;;;4.70;;
40907;SDS011;51055;59.436;24.778;2023-06-26T00:54:51;6.35;;;4.38;;
40907;SDS011;51055;59.436;24.778;2023-06-26T00:57:19;7.80;;;5.03;;
40907;SDS011;51055;59.436;24.778;2023-06-26T00:59:47;7.80;;;4.68;;
40907;SDS011;51055;59.436;24.778;2023-06-26T01:02:15;9.65;;;5.18;;
40907;SDS011;51055;59.436;24.778;2023-06-26T01:04:48;9.40;;;5.32;;
40907;SDS011;51055;59.436;24.778;2023-06-26T01:09:46;8.15;;;4.85;;
40907;SDS011;51055;59.436;24.778;2023-06-26T01:12:15;6.95;;;4.55;;
40907;SDS011;51055;59.436;24.778;2023-06-26T01:14:42;7.78;;;4.93;;
40907;SDS011;51055;59.436;24.778;2023-06-26T01:17:10;6.93;;;4.95;;
40907;SDS011;51055;59.436;24.778;2023-06-26T01:19:42;7.20;;;4.63;;
40907;SDS011;51055;59.436;24.778;2023-06-26T01:22:16;7.90;;;4.85;;
40907;SDS011;51055;59.436;24.778;2023-06-26T01:27:34;8.05;;;4.88;;
40907;SDS011;51055;59.436;24.778;2023-06-26T01:30:03;7.63;;;4.72;;
40907;SDS011;51055;59.436;24.778;2023-06-26T01:32:33;7.80;;;4.78;;
40907;SDS011;51055;59.436;24.778;2023-06-26T01:35:01;7.78;;;4.68;;
40907;SDS011;51055;59.436;24.778;2023-06-26T01:39:58;7.50;;;4.70;;
40907;SDS011;51055;59.436;24.778;2023-06-26T01:42:25;9.57;;;4.90;;
40907;SDS011;51055;59.436;24.778;2023-06-26T01:44:54;7.30;;;4.30;;
40907;SDS011;51055;59.436;24.778;2023-06-26T01:50:00;6.40;;;4.13;;
40907;SDS011;51055;59.436;24.778;2023-06-26T01:52:39;8.20;;;4.55;;
40907;SDS011;51055;59.436;24.778;2023-06-26T01:57:39;8.68;;;4.38;;
40907;SDS011;51055;59.436;24.778;2023-06-26T02:00:08;8.13;;;4.68;;
40907;SDS011;51055;59.436;24.778;2023-06-26T02:02:39;9.52;;;4.60;;
40907;SDS011;51055;59.436;24.778;2023-06-26T02:05:09;8.93;;;5.13;;
40907;SDS011;51055;59.436;24.778;2023-06-26T02:07:37;7.90;;;4.53;;
40907;SDS011;51055;59.436;24.778;2023-06-26T02:10:05;11.13;;;5.55;;
40907;SDS011;51055;59.436;24.778;2023-06-26T02:12:35;7.07;;;4.63;;
40907;SDS011;51055;59.436;24.778;2023-06-26T02:15:03;8.98;;;4.78;;
40907;SDS011;51055;59.436;24.778;2023-06-26T02:17:32;7.10;;;4.65;;
40907;SDS011;51055;59.436;24.778;2023-06-26T02:20:00;6.75;;;4.47;;
40907;SDS011;51055;59.436;24.778;2023-06-26T02:22:27;6.50;;;4.65;;
40907;SDS011;51055;59.436;24.778;2023-06-26T02:24:55;7.43;;;4.95;;
40907;SDS011;51055;59.436;24.778;2023-06-26T02:27:23;7.35;;;4.20;;
40907;SDS011;51055;59.436;24.778;2023-06-26T02:29:51;7.35;;;4.55;;
40907;SDS011;51055;59.436;24.778;2023-06-26T02:32:19;8.43;;;4.05;;
40907;SDS011;51055;59.436;24.778;2023-06-26T02:34:47;7.07;;;4.68;;
40907;SDS011;51055;59.436;24.778;2023-06-26T02:37:14;7.32;;;4.43;;
40907;SDS011;51055;59.436;24.778;2023-06-26T02:39:43;6.35;;;4.13;;
40907;SDS011;51055;59.436;24.778;2023-06-26T02:42:10;8.40;;;4.75;;
40907;SDS011;51055;59.436;24.778;2023-06-26T02:44:38;7.75;;;5.03;;
40907;SDS011;51055;59.436;24.778;2023-06-26T02:47:06;8.10;;;5.37;;
40907;SDS011;51055;59.436;24.778;2023-06-26T02:49:34;8.27;;;5.37;;
40907;SDS011;51055;59.436;24.778;2023-06-26T02:52:02;9.85;;;5.53;;
40907;SDS011;51055;59.436;24.778;2023-06-26T02:54:29;8.13;;;5.10;;
40907;SDS011;51055;59.436;24.778;2023-06-26T02:56:57;8.30;;;5.65;;
40907;SDS011;51055;59.436;24.778;2023-06-26T02:59:26;6.43;;;4.38;;
40907;SDS011;51055;59.436;24.778;2023-06-26T03:01:54;6.88;;;4.70;;
40907;SDS011;51055;59.436;24.778;2023-06-26T03:04:22;7.95;;;4.97;;
40907;SDS011;51055;59.436;24.778;2023-06-26T03:06:49;7.57;;;4.72;;
40907;SDS011;51055;59.436;24.778;2023-06-26T03:09:17;8.13;;;5.43;;
40907;SDS011;51055;59.436;24.778;2023-06-26T03:11:45;9.77;;;5.82;;
40907;SDS011;51055;59.436;24.778;2023-06-26T03:14:12;9.13;;;5.97;;
40907;SDS011;51055;59.436;24.778;2023-06-26T03:16:40;8.75;;;5.80;;
40907;SDS011;51055;59.436;24.778;2023-06-26T03:19:08;9.73;;;6.38;;
40907;SDS011;51055;59.436;24.778;2023-06-26T03:21:36;7.45;;;5.03;;
40907;SDS011;51055;59.436;24.778;2023-06-26T03:24:04;6.97;;;5.05;;
40907;SDS011;51055;59.436;24.778;2023-06-26T03:26:32;9.20;;;4.63;;
40907;SDS011;51055;59.436;24.778;2023-06-26T03:29:00;6.75;;;4.32;;
40907;SDS011;51055;59.436;24.778;2023-06-26T03:31:27;10.32;;;5.30;;
40907;SDS011;51055;59.436;24.778;2023-06-26T03:33:55;11.17;;;4.80;;
40907;SDS011;51055;59.436;24.778;2023-06-26T03:36:23;6.95;;;4.50;;
40907;SDS011;51055;59.436;24.778;2023-06-26T03:38:51;8.43;;;5.20;;
40907;SDS011;51055;59.436;24.778;2023-06-26T03:41:23;7.30;;;4.47;;
40907;SDS011;51055;59.436;24.778;2023-06-26T03:43:51;7.72;;;4.72;;
40907;SDS011;51055;59.436;24.778;2023-06-26T03:46:19;8.93;;;4.20;;
40907;SDS011;51055;59.436;24.778;2023-06-26T03:48:46;7.88;;;4.43;;
40907;SDS011;51055;59.436;24.778;2023-06-26T03:51:14;7.28;;;4.50;;
40907;SDS011;51055;59.436;24.778;2023-06-26T03:53:42;6.60;;;4.43;;
40907;SDS011;51055;59.436;24.778;2023-06-26T03:56:10;8.38;;;4.40;;
40907;SDS011;51055;59.436;24.778;2023-06-26T03:58:37;6.80;;;4.43;;
40907;SDS011;51055;59.436;24.778;2023-06-26T04:01:05;8.35;;;4.47;;
40907;SDS011;51055;59.436;24.778;2023-06-26T04:03:32;8.13;;;4.78;;
40907;SDS011;51055;59.436;24.778;2023-06-26T04:06:01;7.13;;;4.13;;
40907;SDS011;51055;59.436;24.778;2023-06-26T04:08:28;6.63;;;3.75;;
40907;SDS011;51055;59.436;24.778;2023-06-26T04:10:56;6.05;;;4.10;;
40907;SDS011;51055;59.436;24.778;2023-06-26T04:13:25;8.10;;;4.28;;
40907;SDS011;51055;59.436;24.778;2023-06-26T04:15:53;10.43;;;5.18;;
40907;SDS011;51055;59.436;24.778;2023-06-26T04:18:20;7.35;;;4.57;;
40907;SDS011;51055;59.436;24.778;2023-06-26T04:21:04;7.82;;;4.70;;
40907;SDS011;51055;59.436;24.778;2023-06-26T04:23:39;11.38;;;5.28;;
40907;SDS011;51055;59.436;24.778;2023-06-26T04:26:08;8.10;;;4.97;;
40907;SDS011;51055;59.436;24.778;2023-06-26T04:28:36;8.35;;;5.13;;
40907;SDS011;51055;59.436;24.778;2023-06-26T04:31:05;7.50;;;4.90;;
40907;SDS011;51055;59.436;24.778;2023-06-26T04:33:32;8.32;;;5.28;;
40907;SDS011;51055;59.436;24.778;2023-06-26T04:36:00;7.03;;;5.10;;
40907;SDS011;51055;59.436;24.778;2023-06-26T04:38:31;8.07;;;5.10;;
40907;SDS011;51055;59.436;24.778;2023-06-26T04:41:01;10.43;;;5.65;;
40907;SDS011;51055;59.436;24.778;2023-06-26T04:43:29;8.13;;;5.32;;
40907;SDS011;51055;59.436;24.778;2023-06-26T04:45:57;9.23;;;5.80;;
40907;SDS011;51055;59.436;24.778;2023-06-26T04:48:24;10.00;;;5.70;;
40907;SDS011;51055;59.436;24.778;2023-06-26T04:50:54;10.90;;;6.25;;
40907;SDS011;51055;59.436;24.778;2023-06-26T04:53:23;8.50;;;5.05;;
40907;SDS011;51055;59.436;24.778;2023-06-26T04:55:51;8.85;;;5.22;;
40907;SDS011;51055;59.436;24.778;2023-06-26T04:58:19;8.13;;;5.00;;
40907;SDS011;51055;59.436;24.778;2023-06-26T05:00:47;7.07;;;4.97;;
40907;SDS011;51055;59.436;24.778;2023-06-26T05:03:16;11.20;;;5.88;;
40907;SDS011;51055;59.436;24.778;2023-06-26T05:05:45;9.15;;;5.50;;
40907;SDS011;51055;59.436;24.778;2023-06-26T05:08:21;8.13;;;4.83;;
40907;SDS011;51055;59.436;24.778;2023-06-26T05:10:50;7.82;;;4.60;;
40907;SDS011;51055;59.436;24.778;2023-06-26T05:13:17;8.13;;;4.97;;
40907;SDS011;51055;59.436;24.778;2023-06-26T05:15:46;6.55;;;4.45;;
40907;SDS011;51055;59.436;24.778;2023-06-26T05:18:14;6.82;;;4.50;;
40907;SDS011;51055;59.436;24.778;2023-06-26T05:20:42;8.70;;;4.77;;
40907;SDS011;51055;59.436;24.778;2023-06-26T05:23:12;7.63;;;4.13;;
40907;SDS011;51055;59.436;24.778;2023-06-26T05:25:41;6.40;;;3.85;;
40907;SDS011;51055;59.436;24.778;2023-06-26T05:28:09;21.40;;;4.93;;
40907;SDS011;51055;59.436;24.778;2023-06-26T05:30:37;6.20;;;3.63;;
40907;SDS011;51055;59.436;24.778;2023-06-26T05:33:05;7.72;;;4.22;;
40907;SDS011;51055;59.436;24.778;2023-06-26T05:35:35;6.68;;;4.07;;
40907;SDS011;51055;59.436;24.778;2023-06-26T05:38:03;6.68;;;3.72;;
40907;SDS011;51055;59.436;24.778;2023-06-26T05:40:31;6.00;;;4.60;;
40907;SDS011;51055;59.436;24.778;2023-06-26T05:43:01;7.75;;;4.38;;
40907;SDS011;51055;59.436;24.778;2023-06-26T05:45:29;6.07;;;3.63;;
40907;SDS011;51055;59.436;24.778;2023-06-26T05:47:56;7.28;;;3.95;;
40907;SDS011;51055;59.436;24.778;2023-06-26T05:50:24;7.77;;;3.83;;
40907;SDS011;51055;59.436;24.778;2023-06-26T05:52:53;6.88;;;3.97;;
40907;SDS011;51055;59.436;24.778;2023-06-26T05:55:21;7.65;;;4.13;;
40907;SDS011;51055;59.436;24.778;2023-06-26T05:57:50;8.13;;;4.22;;
40907;SDS011;51055;59.436;24.778;2023-06-26T06:00:21;6.32;;;3.60;;
40907;SDS011;51055;59.436;24.778;2023-06-26T06:02:49;5.70;;;3.80;;
40907;SDS011;51055;59.436;24.778;2023-06-26T06:05:22;7.25;;;3.60;;
40907;SDS011;51055;59.436;24.778;2023-06-26T06:07:50;5.90;;;4.03;;
40907;SDS011;51055;59.436;24.778;2023-06-26T06:10:17;7.50;;;3.70;;
40907;SDS011;51055;59.436;24.778;2023-06-26T06:12:45;6.30;;;3.90;;
40907;SDS011;51055;59.436;24.778;2023-06-26T06:15:13;6.28;;;4.00;;
40907;SDS011;51055;59.436;24.778;2023-06-26T06:17:41;5.97;;;3.95;;
40907;SDS011;51055;59.436;24.778;2023-06-26T06:20:09;6.00;;;3.40;;
40907;SDS011;51055;59.436;24.778;2023-06-26T06:22:36;6.57;;;4.17;;
40907;SDS011;51055;59.436;24.778;2023-06-26T06:25:04;5.97;;;3.40;;
40907;SDS011;51055;59.436;24.778;2023-06-26T06:27:32;4.68;;;2.83;;
40907;SDS011;51055;59.436;24.778;2023-06-26T06:29:59;5.35;;;3.25;;
40907;SDS011;51055;59.436;24.778;2023-06-26T06:32:27;5.18;;;3.05;;
40907;SDS011;51055;59.436;24.778;2023-06-26T06:34:54;6.07;;;3.60;;
40907;SDS011;51055;59.436;24.778;2023-06-26T06:37:22;5.00;;;3.10;;
40907;SDS011;51055;59.436;24.778;2023-06-26T06:39:49;5.63;;;3.35;;
40907;SDS011;51055;59.436;24.778;2023-06-26T06:42:17;5.40;;;3.17;;
40907;SDS011;51055;59.436;24.778;2023-06-26T06:44:45;6.78;;;3.67;;
40907;SDS011;51055;59.436;24.778;2023-06-26T06:47:12;10.45;;;3.60;;
40907;SDS011;51055;59.436;24.778;2023-06-26T06:49:40;6.17;;;3.60;;
40907;SDS011;51055;59.436;24.778;2023-06-26T06:52:08;7.60;;;3.75;;
40907;SDS011;51055;59.436;24.778;2023-06-26T06:54:54;7.95;;;3.42;;
40907;SDS011;51055;59.436;24.778;2023-06-26T06:57:23;6.25;;;3.38;;
40907;SDS011;51055;59.436;24.778;2023-06-26T06:59:51;4.47;;;2.78;;
40907;SDS011;51055;59.436;24.778;2023-06-26T07:02:19;5.03;;;3.03;;
40907;SDS011;51055;59.436;24.778;2023-06-26T07:04:47;4.65;;;2.70;;
40907;SDS011;51055;59.436;24.778;2023-06-26T07:07:17;6.53;;;2.80;;
40907;SDS011;51055;59.436;24.778;2023-06-26T07:09:46;5.00;;;2.80;;
40907;SDS011;51055;59.436;24.778;2023-06-26T07:12:14;3.90;;;2.30;;
40907;SDS011;51055;59.436;24.778;2023-06-26T07:14:41;5.53;;;2.70;;
40907;SDS011;51055;59.436;24.778;2023-06-26T07:17:09;6.13;;;2.83;;
40907;SDS011;51055;59.436;24.778;2023-06-26T07:19:36;4.23;;;2.30;;
40907;SDS011;51055;59.436;24.778;2023-06-26T07:22:04;6.23;;;2.77;;
40907;SDS011;51055;59.436;24.778;2023-06-26T07:24:34;4.47;;;2.60;;
40907;SDS011;51055;59.436;24.778;2023-06-26T07:27:01;5.20;;;2.58;;
40907;SDS011;51055;59.436;24.778;2023-06-26T07:29:29;5.20;;;2.53;;
40907;SDS011;51055;59.436;24.778;2023-06-26T07:31:57;4.95;;;2.47;;
40907;SDS011;51055;59.436;24.778;2023-06-26T07:34:24;4.47;;;2.80;;
40907;SDS011;51055;59.436;24.778;2023-06-26T07:36:52;5.17;;;2.77;;
40907;SDS011;51055;59.436;24.778;2023-06-26T07:39:20;4.60;;;2.83;;
40907;SDS011;51055;59.436;24.778;2023-06-26T07:41:50;6.38;;;2.60;;
40907;SDS011;51055;59.436;24.778;2023-06-26T07:44:17;7.00;;;2.67;;
40907;SDS011;51055;59.436;24.778;2023-06-26T07:46:45;4.70;;;2.58;;
40907;SDS011;51055;59.436;24.778;2023-06-26T07:49:13;4.78;;;2.50;;
40907;SDS011;51055;59.436;24.778;2023-06-26T07:51:40;6.15;;;2.65;;
40907;SDS011;51055;59.436;24.778;2023-06-26T07:54:08;4.05;;;2.60;;
40907;SDS011;51055;59.436;24.778;2023-06-26T07:59:40;4.18;;;2.72;;
40907;SDS011;51055;59.436;24.778;2023-06-26T08:02:07;6.53;;;3.33;;
40907;SDS011;51055;59.436;24.778;2023-06-26T08:04:35;5.93;;;3.00;;
40907;SDS011;51055;59.436;24.778;2023-06-26T08:07:03;7.55;;;3.47;;
40907;SDS011;51055;59.436;24.778;2023-06-26T08:09:31;4.93;;;2.60;;
40907;SDS011;51055;59.436;24.778;2023-06-26T08:11:59;6.53;;;3.10;;
40907;SDS011;51055;59.436;24.778;2023-06-26T08:14:27;5.82;;;3.35;;
40907;SDS011;51055;59.436;24.778;2023-06-26T08:16:55;5.82;;;3.10;;
40907;SDS011;51055;59.436;24.778;2023-06-26T08:19:23;5.78;;;3.35;;
40907;SDS011;51055;59.436;24.778;2023-06-26T08:21:51;5.40;;;3.10;;
40907;SDS011;51055;59.436;24.778;2023-06-26T08:24:19;4.97;;;3.25;;
40907;SDS011;51055;59.436;24.778;2023-06-26T08:26:47;5.75;;;3.55;;
40907;SDS011;51055;59.436;24.778;2023-06-26T08:31:43;6.13;;;3.50;;
40907;SDS011;51055;59.436;24.778;2023-06-26T08:34:11;7.78;;;4.03;;
40907;SDS011;51055;59.436;24.778;2023-06-26T08:36:39;6.03;;;3.78;;
40907;SDS011;51055;59.436;24.778;2023-06-26T08:39:06;7.57;;;4.38;;
40907;SDS011;51055;59.436;24.778;2023-06-26T08:41:36;8.13;;;4.20;;
40907;SDS011;51055;59.436;24.778;2023-06-26T08:44:04;7.80;;;4.85;;
40907;SDS011;51055;59.436;24.778;2023-06-26T08:46:32;6.85;;;4.93;;
40907;SDS011;51055;59.436;24.778;2023-06-26T08:49:04;6.22;;;4.57;;
40907;SDS011;51055;59.436;24.778;2023-06-26T08:52:01;7.72;;;4.90;;
40907;SDS011;51055;59.436;24.778;2023-06-26T08:54:34;6.57;;;5.13;;
40907;SDS011;51055;59.436;24.778;2023-06-26T08:57:07;7.75;;;5.32;;
40907;SDS011;51055;59.436;24.778;2023-06-26T08:59:35;7.25;;;5.25;;
40907;SDS011;51055;59.436;24.778;2023-06-26T09:02:03;8.03;;;5.23;;
40907;SDS011;51055;59.436;24.778;2023-06-26T09:04:31;7.20;;;5.60;;
40907;SDS011;51055;59.436;24.778;2023-06-26T09:06:59;8.32;;;6.20;;
40907;SDS011;51055;59.436;24.778;2023-06-26T09:09:26;7.00;;;5.90;;
40907;SDS011;51055;59.436;24.778;2023-06-26T09:11:54;9.17;;;6.60;;
40907;SDS011;51055;59.436;24.778;2023-06-26T09:14:23;7.88;;;6.10;;
40907;SDS011;51055;59.436;24.778;2023-06-26T09:16:51;8.43;;;6.05;;
40907;SDS011;51055;59.436;24.778;2023-06-26T09:19:19;10.88;;;7.38;;
40907;SDS011;51055;59.436;24.778;2023-06-26T09:21:49;8.77;;;7.43;;
40907;SDS011;51055;59.436;24.778;2023-06-26T09:24:18;9.98;;;7.22;;
40907;SDS011;51055;59.436;24.778;2023-06-26T09:26:46;10.15;;;7.85;;
40907;SDS011;51055;59.436;24.778;2023-06-26T09:29:14;9.38;;;7.38;;
40907;SDS011;51055;59.436;24.778;2023-06-26T09:31:43;9.73;;;7.38;;
40907;SDS011;51055;59.436;24.778;2023-06-26T09:34:11;8.73;;;7.35;;
40907;SDS011;51055;59.436;24.778;2023-06-26T09:36:39;12.18;;;7.78;;
40907;SDS011;51055;59.436;24.778;2023-06-26T09:39:09;10.00;;;7.22;;
40907;SDS011;51055;59.436;24.778;2023-06-26T09:41:42;14.98;;;8.55;;
40907;SDS011;51055;59.436;24.778;2023-06-26T09:44:10;11.25;;;8.23;;
40907;SDS011;51055;59.436;24.778;2023-06-26T09:46:41;11.27;;;7.97;;
40907;SDS011;51055;59.436;24.778;2023-06-26T09:49:12;8.70;;;6.97;;
40907;SDS011;51055;59.436;24.778;2023-06-26T09:51:40;10.30;;;7.67;;
40907;SDS011;51055;59.436;24.778;2023-06-26T09:54:10;11.07;;;7.43;;
40907;SDS011;51055;59.436;24.778;2023-06-26T09:56:38;9.48;;;7.47;;
40907;SDS011;51055;59.436;24.778;2023-06-26T09:59:06;9.68;;;7.90;;
40907;SDS011;51055;59.436;24.778;2023-06-26T10:01:36;8.77;;;7.50;;
40907;SDS011;51055;59.436;24.778;2023-06-26T10:04:07;11.20;;;7.95;;
40907;SDS011;51055;59.436;24.778;2023-06-26T10:09:03;10.40;;;7.20;;
40907;SDS011;51055;59.436;24.778;2023-06-26T10:11:39;9.77;;;7.15;;
40907;SDS011;51055;59.436;24.778;2023-06-26T10:14:11;8.43;;;7.45;;
40907;SDS011;51055;59.436;24.778;2023-06-26T10:16:44;9.30;;;8.15;;
40907;SDS011;51055;59.436;24.778;2023-06-26T10:19:16;8.68;;;7.65;;
40907;SDS011;51055;59.436;24.778;2023-06-26T10:21:54;8.65;;;7.38;;
40907;SDS011;51055;59.436;24.778;2023-06-26T10:24:22;8.32;;;7.03;;
40907;SDS011;51055;59.436;24.778;2023-06-26T10:26:57;9.35;;;7.28;;
40907;SDS011;51055;59.436;24.778;2023-06-26T10:29:29;9.93;;;7.70;;
40907;SDS011;51055;59.436;24.778;2023-06-26T10:32:00;9.77;;;7.05;;
40907;SDS011;51055;59.436;24.778;2023-06-26T10:34:31;9.05;;;6.97;;
40907;SDS011;51055;59.436;24.778;2023-06-26T10:37:02;9.55;;;6.60;;
40907;SDS011;51055;59.436;24.778;2023-06-26T10:39:38;8.07;;;6.60;;
40907;SDS011;51055;59.436;24.778;2023-06-26T10:42:12;9.93;;;6.60;;
40907;SDS011;51055;59.436;24.778;2023-06-26T10:44:41;10.07;;;6.20;;
40907;SDS011;51055;59.436;24.778;2023-06-26T10:50:23;7.40;;;5.93;;
40907;SDS011;51055;59.436;24.778;2023-06-26T10:55:41;8.05;;;5.95;;
40907;SDS011;51055;59.436;24.778;2023-06-26T10:58:34;8.18;;;5.60;;
40907;SDS011;51055;59.436;24.778;2023-06-26T11:03:38;7.32;;;5.40;;
40907;SDS011;51055;59.436;24.778;2023-06-26T11:06:10;8.57;;;5.80;;
40907;SDS011;51055;59.436;24.778;2023-06-26T11:08:48;7.78;;;5.45;;
40907;SDS011;51055;59.436;24.778;2023-06-26T11:11:16;6.85;;;5.50;;
40907;SDS011;51055;59.436;24.778;2023-06-26T11:13:45;8.02;;;5.75;;
40907;SDS011;51055;59.436;24.778;2023-06-26T11:16:14;7.63;;;5.45;;
40907;SDS011;51055;59.436;24.778;2023-06-26T11:18:42;8.30;;;5.80;;
40907;SDS011;51055;59.436;24.778;2023-06-26T11:21:12;7.78;;;6.07;;
40907;SDS011;51055;59.436;24.778;2023-06-26T11:23:43;8.10;;;5.38;;
40907;SDS011;51055;59.436;24.778;2023-06-26T11:26:16;7.18;;;5.75;;
40907;SDS011;51055;59.436;24.778;2023-06-26T11:28:51;8.98;;;6.15;;
40907;SDS011;51055;59.436;24.778;2023-06-26T11:31:25;9.05;;;6.10;;
40907;SDS011;51055;59.436;24.778;2023-06-26T11:34:02;8.07;;;6.40;;
40907;SDS011;51055;59.436;24.778;2023-06-26T11:36:31;7.43;;;6.18;;
40907;SDS011;51055;59.436;24.778;2023-06-26T11:41:30;8.82;;;6.22;;
40907;SDS011;51055;59.436;24.778;2023-06-26T11:44:05;7.57;;;6.00;;
40907;SDS011;51055;59.436;24.778;2023-06-26T11:46:34;8.77;;;6.00;;
40907;SDS011;51055;59.436;24.778;2023-06-26T11:51:32;8.02;;;5.95;;
40907;SDS011;51055;59.436;24.778;2023-06-26T11:54:00;9.00;;;6.47;;
40907;SDS011;51055;59.436;24.778;2023-06-26T11:56:32;9.73;;;6.88;;
40907;SDS011;51055;59.436;24.778;2023-06-26T12:01:44;8.18;;;5.82;;
40907;SDS011;51055;59.436;24.778;2023-06-26T12:04:13;8.40;;;6.18;;
40907;SDS011;51055;59.436;24.778;2023-06-26T12:06:46;8.40;;;6.40;;
40907;SDS011;51055;59.436;24.778;2023-06-26T12:09:18;8.05;;;6.00;;
40907;SDS011;51055;59.436;24.778;2023-06-26T12:11:47;11.60;;;6.22;;
40907;SDS011;51055;59.436;24.778;2023-06-26T12:14:19;9.82;;;5.63;;
40907;SDS011;51055;59.436;24.778;2023-06-26T12:16:47;8.00;;;6.70;;
40907;SDS011;51055;59.436;24.778;2023-06-26T12:19:15;7.70;;;5.85;;
40907;SDS011;51055;59.436;24.778;2023-06-26T12:21:44;8.48;;;5.35;;
40907;SDS011;51055;59.436;24.778;2023-06-26T12:24:17;7.20;;;5.13;;
40907;SDS011;51055;59.436;24.778;2023-06-26T12:26:53;8.50;;;5.20;;
40907;SDS011;51055;59.436;24.778;2023-06-26T12:29:33;6.82;;;5.25;;
40907;SDS011;51055;59.436;24.778;2023-06-26T12:32:01;8.48;;;5.10;;
40907;SDS011;51055;59.436;24.778;2023-06-26T12:34:33;7.15;;;4.97;;
40907;SDS011;51055;59.436;24.778;2023-06-26T12:37:03;7.45;;;5.05;;
40907;SDS011;51055;59.436;24.778;2023-06-26T12:42:23;8.77;;;5.90;;
40907;SDS011;51055;59.436;24.778;2023-06-26T12:44:55;6.78;;;5.15;;
40907;SDS011;51055;59.436;24.778;2023-06-26T12:47:27;6.05;;;4.60;;
40907;SDS011;51055;59.436;24.778;2023-06-26T12:49:56;6.25;;;3.95;;
40907;SDS011;51055;59.436;24.778;2023-06-26T12:52:25;5.93;;;4.22;;
40907;SDS011;51055;59.436;24.778;2023-06-26T12:54:53;7.80;;;5.40;;
40907;SDS011;51055;59.436;24.778;2023-06-26T12:57:23;6.05;;;4.40;;
40907;SDS011;51055;59.436;24.778;2023-06-26T12:59:51;7.13;;;4.65;;
40907;SDS011;51055;59.436;24.778;2023-06-26T13:02:18;7.80;;;4.28;;
40907;SDS011;51055;59.436;24.778;2023-06-26T13:04:46;8.25;;;4.38;;
40907;SDS011;51055;59.436;24.778;2023-06-26T13:07:14;6.93;;;4.13;;
40907;SDS011;51055;59.436;24.778;2023-06-26T13:09:42;5.18;;;3.60;;
40907;SDS011;51055;59.436;24.778;2023-06-26T13:12:09;5.53;;;3.90;;
40907;SDS011;51055;59.436;24.778;2023-06-26T13:14:37;5.43;;;3.67;;
40907;SDS011;51055;59.436;24.778;2023-06-26T13:17:06;5.55;;;3.65;;
40907;SDS011;51055;59.436;24.778;2023-06-26T13:19:36;5.85;;;4.03;;
40907;SDS011;51055;59.436;24.778;2023-06-26T13:22:04;5.63;;;3.67;;
40907;SDS011;51055;59.436;24.778;2023-06-26T13:24:32;6.20;;;4.30;;
40907;SDS011;51055;59.436;24.778;2023-06-26T13:26:59;7.57;;;4.30;;
40907;SDS011;51055;59.436;24.778;2023-06-26T13:29:27;7.35;;;3.80;;
40907;SDS011;51055;59.436;24.778;2023-06-26T13:31:55;7.35;;;4.53;;
40907;SDS011;51055;59.436;24.778;2023-06-26T13:34:24;6.93;;;4.70;;
40907;SDS011;51055;59.436;24.778;2023-06-26T13:36:55;6.88;;;4.10;;
40907;SDS011;51055;59.436;24.778;2023-06-26T13:39:24;6.60;;;4.43;;
40907;SDS011;51055;59.436;24.778;2023-06-26T13:41:51;7.15;;;4.70;;
40907;SDS011;51055;59.436;24.778;2023-06-26T13:44:19;6.53;;;4.65;;
40907;SDS011;51055;59.436;24.778;2023-06-26T13:47:07;12.88;;;4.78;;
40907;SDS011;51055;59.436;24.778;2023-06-26T13:49:36;6.35;;;4.13;;
40907;SDS011;51055;59.436;24.778;2023-06-26T13:52:05;6.28;;;4.53;;
40907;SDS011;51055;59.436;24.778;2023-06-26T13:54:35;6.07;;;4.15;;
40907;SDS011;51055;59.436;24.778;2023-06-26T13:57:04;6.18;;;4.75;;
40907;SDS011;51055;59.436;24.778;2023-06-26T13:59:32;6.47;;;4.57;;
40907;SDS011;51055;59.436;24.778;2023-06-26T14:04:28;7.72;;;5.00;;
40907;SDS011;51055;59.436;24.778;2023-06-26T14:06:56;8.68;;;5.07;;
40907;SDS011;51055;59.436;24.778;2023-06-26T14:09:23;6.97;;;4.47;;
40907;SDS011;51055;59.436;24.778;2023-06-26T14:11:51;6.63;;;4.72;;
40907;SDS011;51055;59.436;24.778;2023-06-26T14:14:19;8.38;;;5.00;;
40907;SDS011;51055;59.436;24.778;2023-06-26T14:16:46;7.63;;;5.18;;
40907;SDS011;51055;59.436;24.778;2023-06-26T14:19:17;6.57;;;4.65;;
40907;SDS011;51055;59.436;24.778;2023-06-26T14:21:44;6.53;;;4.82;;
40907;SDS011;51055;59.436;24.778;2023-06-26T14:24:12;6.50;;;4.85;;
40907;SDS011;51055;59.436;24.778;2023-06-26T14:26:39;8.02;;;4.82;;
40907;SDS011;51055;59.436;24.778;2023-06-26T14:29:07;6.80;;;4.63;;
40907;SDS011;51055;59.436;24.778;2023-06-26T14:31:35;6.90;;;4.35;;
40907;SDS011;51055;59.436;24.778;2023-06-26T14:34:03;7.80;;;4.70;;
40907;SDS011;51055;59.436;24.778;2023-06-26T14:36:31;7.80;;;4.75;;
40907;SDS011;51055;59.436;24.778;2023-06-26T14:38:59;8.48;;;4.78;;
40907;SDS011;51055;59.436;24.778;2023-06-26T14:41:27;6.85;;;5.03;;
40907;SDS011;51055;59.436;24.778;2023-06-26T14:46:24;7.18;;;4.63;;
40907;SDS011;51055;59.436;24.778;2023-06-26T14:48:52;5.70;;;4.13;;
40907;SDS011;51055;59.436;24.778;2023-06-26T14:51:22;5.22;;;3.40;;
40907;SDS011;51055;59.436;24.778;2023-06-26T14:53:50;6.07;;;4.13;;
40907;SDS011;51055;59.436;24.778;2023-06-26T14:56:18;6.65;;;3.50;;
40907;SDS011;51055;59.436;24.778;2023-06-26T14:58:46;5.23;;;3.57;;
40907;SDS011;51055;59.436;24.778;2023-06-26T15:01:14;5.78;;;3.75;;
40907;SDS011;51055;59.436;24.778;2023-06-26T15:03:43;5.82;;;3.55;;
40907;SDS011;51055;59.436;24.778;2023-06-26T15:06:11;7.07;;;3.85;;
40907;SDS011;51055;59.436;24.778;2023-06-26T15:08:38;5.00;;;3.33;;
40907;SDS011;51055;59.436;24.778;2023-06-26T15:11:06;6.10;;;3.33;;
40907;SDS011;51055;59.436;24.778;2023-06-26T15:13:34;5.05;;;3.20;;
40907;SDS011;51055;59.436;24.778;2023-06-26T15:16:01;4.82;;;3.35;;
40907;SDS011;51055;59.436;24.778;2023-06-26T15:18:29;5.00;;;3.25;;
40907;SDS011;51055;59.436;24.778;2023-06-26T15:20:57;4.90;;;2.97;;
40907;SDS011;51055;59.436;24.778;2023-06-26T15:23:25;5.45;;;3.25;;
40907;SDS011;51055;59.436;24.778;2023-06-26T15:25:54;5.85;;;3.00;;
40907;SDS011;51055;59.436;24.778;2023-06-26T15:28:22;4.80;;;3.20;;